Rechercher aéroport 
image banner adimage banner adimage banner ad
image banner ad

KIPL - Imperial County

Situé à Imperial, United States

ICAO - IPL, IATA - IPL

Données fournies par Airmate  

Information générale

Coordonnées: N32°50'3" W115°34'44"
Élévation : -54 feet MSL.
Variation magnétique : 14° East
Voir autres Aéroports à California

Données opérationnelles

Special qualification required
Heure actuelle UTC:
Heure actuelle locale:
Météo
METAR: KIPL 251353Z AUTO 13007KT 10SM CLR 30/24 A2984 RMK AO2 SLP106 T03000244
TAF: KIPL 251120Z 2512/2612 12010KT P6SM FEW080 BKN120 FM251500 11012KT P6SM SCT080 BKN100 OVC150 FM252100 12012G18KT P6SM VCSH SCT060 BKN100 FM260100 13007KT P6SM SCT080 BKN120
Voir NOTAMs / SUP AIP / TFR affectant cet aéroport [VIEW]
Fréquences de communication: [VIEW]

Pistes:

Identifiant RWYQFULongueur (ft)Largeur (ft)SurfaceLDA (ft)
0890°450175ASPH4501
26270°450175ASPH4501
14153°5308100ASPH5304
32333°5308100ASPH5304

Coordonnées de l'aéroport

Adresse: Imperial United States

Autres services d'aviation

Écoles de pilotage

Imperial Sky Aviation, Llc

Imperial Sky Aviation, Llc

Vue satellite de KIPL